Time;durP1;ratioP1;P1;durP2;ratioP2;P2;SDS_P1;SDS_P2;PMS_P1;PMS_P2;Temp;Humidity;BMP_temperature;BMP_pressure;BME280_temperature;BME280_humidity;BME280_pressure;Samples;Min_cycle;Max_cycle;Signal;HPM_P1;HPM_P2
2023/10/24 00:00:37;;;;;;;19.73;13.30;;;10.50;99.90;;;;;;4908757;29;20052;-63
2023/10/24 00:03:02;;;;;;;18.25;13.13;;;10.50;99.90;;;;;;4880702;29;20520;-63
2023/10/24 00:05:29;;;;;;;18.00;13.27;;;10.50;99.90;;;;;;4877440;29;20055;-63
2023/10/24 00:07:56;;;;;;;16.30;13.45;;;10.50;99.90;;;;;;4900505;29;20535;-63
2023/10/24 00:10:22;;;;;;;17.50;13.48;;;10.50;99.90;;;;;;4885096;29;20052;-63
2023/10/24 00:12:47;;;;;;;17.65;13.50;;;10.50;99.90;;;;;;4873291;29;20124;-63
2023/10/24 00:15:13;;;;;;;17.30;13.35;;;10.50;99.90;;;;;;4875542;29;20138;-63
2023/10/24 00:17:39;;;;;;;18.85;13.00;;;10.50;99.90;;;;;;4888156;29;20044;-63
2023/10/24 00:20:06;;;;;;;16.98;12.88;;;10.50;99.90;;;;;;4899702;29;20036;-63
2023/10/24 00:22:32;;;;;;;18.92;13.57;;;10.50;99.90;;;;;;4926211;29;20083;-63
2023/10/24 00:24:57;;;;;;;18.25;12.95;;;10.50;99.90;;;;;;5029780;27;20490;-63
2023/10/24 00:27:23;;;;;;;15.65;13.00;;;10.50;99.90;;;;;;5101954;27;20051;-63
2023/10/24 00:29:49;;;;;;;15.80;12.15;;;10.50;99.90;;;;;;5098082;27;20035;-63
2023/10/24 00:32:14;;;;;;;16.10;13.00;;;10.50;99.90;;;;;;5101949;27;20087;-63
2023/10/24 00:34:40;;;;;;;16.20;11.82;;;10.50;99.90;;;;;;5118075;27;20050;-63
2023/10/24 00:37:06;;;;;;;14.65;11.43;;;10.60;99.90;;;;;;5101732;27;20048;-63
2023/10/24 00:39:31;;;;;;;14.68;12.07;;;10.50;99.90;;;;;;5102103;27;20187;-63
2023/10/24 00:41:57;;;;;;;15.40;11.63;;;10.60;99.90;;;;;;5123405;27;20091;-63
2023/10/24 00:44:23;;;;;;;13.98;11.63;;;10.60;99.90;;;;;;5114677;27;20390;-63
2023/10/24 00:46:48;;;;;;;14.85;10.65;;;10.60;99.90;;;;;;5126582;27;20031;-63
2023/10/24 00:49:14;;;;;;;13.60;10.68;;;10.60;99.90;;;;;;5104528;27;20043;-63
2023/10/24 00:51:41;;;;;;;13.00;10.20;;;10.60;99.90;;;;;;5116078;27;20027;-63
2023/10/24 00:54:09;;;;;;;16.65;11.57;;;10.60;99.90;;;;;;5119560;27;20039;-63
2023/10/24 00:56:35;;;;;;;12.93;10.38;;;10.60;99.90;;;;;;5121251;27;20046;-63
2023/10/24 00:59:02;;;;;;;14.38;11.13;;;10.60;99.90;;;;;;5117055;27;20077;-63
2023/10/24 01:01:30;;;;;;;13.00;10.20;;;10.60;99.90;;;;;;5100592;27;20099;-63
2023/10/24 01:03:58;;;;;;;13.50;10.68;;;10.60;99.90;;;;;;5117739;27;20058;-63
2023/10/24 01:06:23;;;;;;;12.57;10.23;;;10.60;99.90;;;;;;5097985;27;20047;-63
2023/10/24 01:08:49;;;;;;;12.35;10.02;;;10.60;99.90;;;;;;5120614;27;20133;-63
2023/10/24 01:11:15;;;;;;;12.32;9.77;;;10.60;99.90;;;;;;5111457;27;20111;-63
2023/10/24 01:13:41;;;;;;;12.70;10.13;;;10.60;99.90;;;;;;5131671;27;20136;-63
2023/10/24 01:16:06;;;;;;;12.43;10.05;;;10.60;99.90;;;;;;5111608;27;20039;-63
2023/10/24 01:18:32;;;;;;;20.02;10.45;;;10.60;99.90;;;;;;5112173;27;20477;-63
2023/10/24 01:20:58;;;;;;;14.43;10.50;;;10.60;99.90;;;;;;5106701;28;20039;-63
2023/10/24 01:23:28;;;;;;;12.63;10.68;;;10.60;99.90;;;;;;5113237;28;20103;-63
2023/10/24 01:25:56;;;;;;;14.02;11.50;;;10.60;99.90;;;;;;5108617;27;21405;-63
2023/10/24 01:28:24;;;;;;;12.35;10.90;;;10.60;99.90;;;;;;5106807;27;20496;-63
2023/10/24 01:30:50;;;;;;;14.27;11.52;;;10.60;99.90;;;;;;5103983;28;20036;-63
2023/10/24 01:33:15;;;;;;;14.98;11.23;;;10.60;99.90;;;;;;5098326;28;20035;-63
2023/10/24 01:35:41;;;;;;;12.90;10.70;;;10.60;99.90;;;;;;5103118;28;20532;-63
2023/10/24 01:38:07;;;;;;;13.77;11.02;;;10.60;99.90;;;;;;5129609;28;20446;-63
2023/10/24 01:40:32;;;;;;;15.75;11.68;;;10.60;99.90;;;;;;5111523;28;20043;-63
2023/10/24 01:42:58;;;;;;;13.10;10.70;;;10.60;99.90;;;;;;5131166;28;20035;-63
2023/10/24 01:45:24;;;;;;;13.57;10.77;;;10.70;99.90;;;;;;5107263;28;20486;-63
2023/10/24 01:47:49;;;;;;;14.70;11.90;;;10.60;99.90;;;;;;5100591;28;20069;-63
2023/10/24 01:50:15;;;;;;;15.48;11.85;;;10.70;99.90;;;;;;5101231;28;20175;-63
2023/10/24 01:52:41;;;;;;;13.75;11.73;;;10.70;99.90;;;;;;5116990;27;20414;-63
2023/10/24 01:55:07;;;;;;;15.63;11.70;;;10.70;99.90;;;;;;5098669;28;20795;-63
2023/10/24 01:57:32;;;;;;;15.13;11.65;;;10.70;99.90;;;;;;5123106;28;20424;-62
2023/10/24 01:59:58;;;;;;;16.58;11.82;;;10.70;99.90;;;;;;5110164;28;20043;-63
2023/10/24 02:02:23;;;;;;;15.55;12.70;;;10.70;99.90;;;;;;5105284;28;20043;-63
2023/10/24 02:04:49;;;;;;;15.82;11.85;;;10.70;99.90;;;;;;5106806;28;20043;-63
2023/10/24 02:07:15;;;;;;;16.85;12.45;;;10.70;99.90;;;;;;5103480;28;20047;-62
2023/10/24 02:09:40;;;;;;;16.67;12.93;;;10.70;99.90;;;;;;5098672;28;20071;-63
2023/10/24 02:12:06;;;;;;;17.17;12.90;;;10.70;99.90;;;;;;5098476;28;20035;-63
2023/10/24 02:14:32;;;;;;;15.75;13.07;;;10.70;99.90;;;;;;5098156;28;20035;-63
2023/10/24 02:16:58;;;;;;;15.20;12.90;;;10.70;99.90;;;;;;5125605;27;20027;-63
2023/10/24 02:19:25;;;;;;;15.18;11.80;;;10.80;99.90;;;;;;5110566;27;20402;-63
2023/10/24 02:21:51;;;;;;;16.55;12.52;;;10.80;99.90;;;;;;5086904;27;20039;-63
2023/10/24 02:24:17;;;;;;;16.30;12.68;;;10.80;99.90;;;;;;5103325;27;20095;-63
2023/10/24 02:26:43;;;;;;;18.27;13.27;;;10.80;99.90;;;;;;5103416;27;20984;-63
2023/10/24 02:29:09;;;;;;;16.23;13.70;;;10.80;99.90;;;;;;5102594;27;20686;-63
2023/10/24 02:31:34;;;;;;;16.02;13.52;;;10.80;99.90;;;;;;5100503;27;20035;-63
2023/10/24 02:34:00;;;;;;;15.70;13.20;;;10.80;99.90;;;;;;5102382;27;20134;-63
2023/10/24 02:36:26;;;;;;;15.75;12.98;;;10.80;99.90;;;;;;5114168;27;20051;-63
2023/10/24 02:38:51;;;;;;;17.42;13.48;;;10.80;99.90;;;;;;5111764;27;20043;-63
2023/10/24 02:41:17;;;;;;;17.30;13.13;;;10.80;99.90;;;;;;5098503;27;20058;-63
2023/10/24 02:43:43;;;;;;;15.40;12.07;;;10.80;99.90;;;;;;5128447;27;20386;-62
2023/10/24 02:46:09;;;;;;;14.35;11.52;;;10.80;99.90;;;;;;5121163;27;20035;-63
2023/10/24 02:48:34;;;;;;;14.70;12.38;;;10.90;99.90;;;;;;5104297;27;20046;-63
2023/10/24 02:51:00;;;;;;;14.02;11.95;;;10.90;99.90;;;;;;5129359;27;20477;-63
2023/10/24 02:53:26;;;;;;;14.27;11.60;;;10.90;99.90;;;;;;5107290;27;20046;-62
2023/10/24 02:55:52;;;;;;;15.57;10.80;;;10.90;99.90;;;;;;5094775;27;20058;-63
2023/10/24 02:58:18;;;;;;;16.02;10.98;;;10.90;99.90;;;;;;5129891;27;20035;-63
2023/10/24 03:00:45;;;;;;;12.35;10.18;;;10.90;99.90;;;;;;5104797;27;20177;-62
2023/10/24 03:03:11;;;;;;;13.88;11.27;;;11.00;99.90;;;;;;5102153;27;20042;-62
2023/10/24 03:05:37;;;;;;;13.80;10.73;;;11.00;99.90;;;;;;5125500;27;20398;-63
2023/10/24 03:08:04;;;;;;;14.48;10.80;;;11.00;99.90;;;;;;5105896;27;20038;-63
2023/10/24 03:10:30;;;;;;;13.10;10.52;;;11.00;99.90;;;;;;5109797;27;20039;-63
2023/10/24 03:12:56;;;;;;;15.93;11.25;;;11.00;99.90;;;;;;5100293;27;20042;-63
2023/10/24 03:15:21;;;;;;;13.98;11.60;;;11.00;99.90;;;;;;5111483;27;20042;-63
2023/10/24 03:17:48;;;;;;;14.15;11.02;;;11.00;99.90;;;;;;5119384;27;20054;-63
2023/10/24 03:20:13;;;;;;;16.95;11.82;;;11.00;99.90;;;;;;5127732;27;20047;-63
2023/10/24 03:22:39;;;;;;;15.95;11.20;;;11.00;99.90;;;;;;5121120;27;20406;-63
2023/10/24 03:25:06;;;;;;;17.42;11.30;;;11.00;99.90;;;;;;5107710;27;20116;-63
2023/10/24 03:27:31;;;;;;;14.73;11.40;;;11.00;99.90;;;;;;5102498;27;20154;-62
2023/10/24 03:29:57;;;;;;;18.17;11.35;;;11.10;99.90;;;;;;5101233;27;20122;-63
2023/10/24 03:32:23;;;;;;;13.90;11.57;;;11.00;99.90;;;;;;5104452;27;20102;-63
2023/10/24 03:34:49;;;;;;;14.50;11.65;;;11.10;99.90;;;;;;5106890;27;20055;-63
2023/10/24 03:37:17;;;;;;;17.38;11.50;;;11.10;99.90;;;;;;5109096;27;20394;-63
2023/10/24 03:39:43;;;;;;;14.32;11.75;;;11.10;99.90;;;;;;5126001;27;20031;-63
2023/10/24 03:42:13;;;;;;;15.90;11.13;;;11.10;99.90;;;;;;5111096;27;20043;-63
2023/10/24 03:44:39;;;;;;;14.77;11.60;;;11.10;99.90;;;;;;5100357;27;20042;-62
2023/10/24 03:47:05;;;;;;;15.70;11.77;;;11.10;99.90;;;;;;5113140;27;20040;-63
2023/10/24 03:49:31;;;;;;;14.25;11.82;;;11.10;99.90;;;;;;5111755;27;20065;-63
2023/10/24 03:51:57;;;;;;;14.75;11.57;;;11.20;99.90;;;;;;5128883;27;20397;-63
2023/10/24 03:54:22;;;;;;;15.13;11.90;;;11.20;99.90;;;;;;5120117;27;20035;-63
2023/10/24 03:56:48;;;;;;;15.35;11.20;;;11.20;99.90;;;;;;5122742;27;20039;-64
2023/10/24 03:59:14;;;;;;;12.80;11.43;;;11.20;99.90;;;;;;5131580;27;20035;-63
2023/10/24 04:01:41;;;;;;;12.65;10.65;;;11.20;99.90;;;;;;5112234;27;20118;-63
2023/10/24 04:04:06;;;;;;;12.30;10.85;;;11.20;99.90;;;;;;5108861;27;20042;-63
2023/10/24 04:06:34;;;;;;;13.23;11.63;;;11.20;99.90;;;;;;5108814;27;20108;-63
2023/10/24 04:09:04;;;;;;;11.93;10.77;;;11.20;99.90;;;;;;5126939;27;20073;-63
2023/10/24 04:11:30;;;;;;;12.63;10.68;;;11.30;99.90;;;;;;5105583;27;20478;-63
2023/10/24 04:13:56;;;;;;;12.95;11.10;;;11.30;99.90;;;;;;5102102;27;20074;-63
2023/10/24 04:16:22;;;;;;;12.68;10.88;;;11.30;99.90;;;;;;5103501;27;20114;-63
2023/10/24 04:18:47;;;;;;;13.15;10.80;;;11.30;99.90;;;;;;5112363;27;20035;-63
2023/10/24 04:21:15;;;;;;;12.88;10.35;;;11.30;99.90;;;;;;5113123;27;20461;-63
2023/10/24 04:23:41;;;;;;;12.52;11.23;;;11.40;99.90;;;;;;5102458;27;20060;-63
2023/10/24 04:26:07;;;;;;;12.02;10.82;;;11.30;99.90;;;;;;5105508;27;20051;-63
2023/10/24 04:28:33;;;;;;;13.70;10.77;;;11.30;99.90;;;;;;5088868;27;20102;-63
2023/10/24 04:30:59;;;;;;;11.57;10.38;;;11.40;99.90;;;;;;5111856;27;20043;-63
2023/10/24 04:33:25;;;;;;;13.15;10.48;;;11.30;99.90;;;;;;5100892;27;20031;-63
2023/10/24 04:35:51;;;;;;;12.60;11.27;;;11.30;99.90;;;;;;5120887;27;20450;-63
2023/10/24 04:38:20;;;;;;;12.05;9.85;;;11.40;99.90;;;;;;5101231;27;20050;-63
2023/10/24 04:40:46;;;;;;;12.07;9.75;;;11.40;99.90;;;;;;5103250;27;20126;-63
2023/10/24 04:43:12;;;;;;;12.38;9.82;;;11.40;99.90;;;;;;5126685;27;20109;-63
2023/10/24 04:45:38;;;;;;;11.93;9.68;;;11.40;99.90;;;;;;5127818;27;20054;-63
2023/10/24 04:48:05;;;;;;;11.60;9.32;;;11.40;99.90;;;;;;5129649;27;20068;-63
2023/10/24 04:50:34;;;;;;;9.77;8.77;;;11.40;99.90;;;;;;5110486;27;20075;-63
2023/10/24 04:53:00;;;;;;;9.60;8.60;;;11.40;99.90;;;;;;5109562;27;20586;-62
2023/10/24 04:55:25;;;;;;;11.93;9.07;;;11.40;99.90;;;;;;5111685;27;20071;-64
2023/10/24 04:57:51;;;;;;;9.05;8.15;;;11.40;99.90;;;;;;5111278;27;20122;-63
2023/10/24 05:00:17;;;;;;;10.20;8.25;;;11.40;99.90;;;;;;5112067;27;20047;-63
2023/10/24 05:02:44;;;;;;;10.73;8.65;;;11.40;99.90;;;;;;5129732;27;20035;-63
2023/10/24 05:05:10;;;;;;;10.32;8.18;;;11.40;99.90;;;;;;5123608;27;20049;-63
2023/10/24 05:07:36;;;;;;;10.82;7.88;;;11.40;99.90;;;;;;5128571;27;20031;-63
2023/10/24 05:10:13;;;;;;;9.50;8.10;;;11.40;99.90;;;;;;5123136;27;20042;-62
2023/10/24 05:12:47;;;;;;;9.88;8.93;;;11.40;99.90;;;;;;5097222;27;20046;-62
2023/10/24 05:15:13;;;;;;;12.02;9.35;;;11.40;99.90;;;;;;5113430;27;20043;-63
2023/10/24 05:17:38;;;;;;;8.13;7.32;;;11.40;99.90;;;;;;5113244;28;20043;-63
2023/10/24 05:20:07;;;;;;;10.35;7.40;;;11.40;99.90;;;;;;5131784;27;20485;-63
2023/10/24 05:22:33;;;;;;;7.82;7.03;;;11.40;99.90;;;;;;5128633;27;20038;-63
2023/10/24 05:24:59;;;;;;;7.35;6.45;;;11.40;99.90;;;;;;5112947;27;20521;-63
2023/10/24 05:27:26;;;;;;;8.00;6.70;;;11.40;99.90;;;;;;5095628;27;20051;-63
2023/10/24 05:29:52;;;;;;;8.02;6.57;;;11.30;99.90;;;;;;5112995;27;20045;-63
2023/10/24 05:32:18;;;;;;;7.20;6.35;;;11.40;99.90;;;;;;5113060;28;20039;-63
2023/10/24 05:34:43;;;;;;;8.68;6.70;;;11.30;99.90;;;;;;5109408;28;20048;-62
2023/10/24 05:37:09;;;;;;;8.43;6.80;;;11.40;99.90;;;;;;5111091;28;20044;-62
2023/10/24 05:39:35;;;;;;;10.07;6.55;;;11.30;99.90;;;;;;5108897;28;20051;-63
2023/10/24 05:42:01;;;;;;;6.75;6.10;;;11.30;99.90;;;;;;5109857;28;20039;-63
2023/10/24 05:44:26;;;;;;;7.10;6.40;;;11.30;99.90;;;;;;5110983;28;20036;-62
2023/10/24 05:46:53;;;;;;;7.90;6.20;;;11.30;99.90;;;;;;5109409;28;20072;-62
2023/10/24 05:49:19;;;;;;;6.70;5.88;;;11.30;99.90;;;;;;5111044;28;20386;-63
2023/10/24 05:51:45;;;;;;;6.65;5.95;;;11.20;99.90;;;;;;5109357;28;20043;-63
2023/10/24 05:54:10;;;;;;;6.18;5.57;;;11.30;99.90;;;;;;5113374;28;20587;-63
2023/10/24 05:56:36;;;;;;;6.78;6.05;;;11.30;99.90;;;;;;5114848;28;20075;-62
2023/10/24 05:59:02;;;;;;;6.88;6.18;;;11.20;99.90;;;;;;5113546;28;20050;-63
2023/10/24 06:01:28;;;;;;;7.00;5.65;;;11.30;99.90;;;;;;5113765;28;20078;-63
2023/10/24 06:03:53;;;;;;;6.93;6.22;;;11.20;99.90;;;;;;5096368;28;20388;-63
2023/10/24 06:06:19;;;;;;;6.25;5.65;;;11.20;99.90;;;;;;5114715;28;20043;-63
2023/10/24 06:08:44;;;;;;;9.60;5.88;;;11.20;99.90;;;;;;5095638;28;20047;-62
2023/10/24 06:11:10;;;;;;;6.13;5.53;;;11.10;99.90;;;;;;5095964;28;20171;-63
2023/10/24 06:13:36;;;;;;;14.70;6.65;;;11.20;99.90;;;;;;5113201;28;20104;-63
2023/10/24 06:16:13;;;;;;;6.60;6.00;;;11.20;99.90;;;;;;5113082;28;20039;-63
2023/10/24 06:18:39;;;;;;;6.20;5.63;;;11.20;99.90;;;;;;5113389;28;20047;-62
2023/10/24 06:21:09;;;;;;;8.82;6.20;;;11.20;99.90;;;;;;5112871;28;20097;-63
2023/10/24 06:23:35;;;;;;;8.32;6.50;;;11.20;99.90;;;;;;5114627;28;20432;-62
2023/10/24 06:26:01;;;;;;;6.63;6.03;;;11.20;99.90;;;;;;5112628;28;20040;-63
2023/10/24 06:28:27;;;;;;;9.55;6.22;;;11.20;99.90;;;;;;5114236;28;20044;-63
2023/10/24 06:31:00;;;;;;;9.60;6.30;;;11.20;99.90;;;;;;5112809;28;20486;-63
2023/10/24 06:33:32;;;;;;;7.30;6.25;;;11.20;99.90;;;;;;5115681;27;20405;-63
2023/10/24 06:35:59;;;;;;;7.50;6.18;;;11.20;99.90;;;;;;5115922;27;20047;-63
2023/10/24 06:38:25;;;;;;;6.35;5.47;;;11.20;99.90;;;;;;5134966;27;20437;-63
2023/10/24 06:40:51;;;;;;;6.78;6.07;;;11.20;99.90;;;;;;5134609;27;20080;-62
2023/10/24 06:43:18;;;;;;;7.88;6.22;;;11.30;99.90;;;;;;5116118;27;20451;-63
2023/10/24 06:45:45;;;;;;;8.38;6.13;;;11.20;99.90;;;;;;5098954;27;20047;-63
2023/10/24 06:48:11;;;;;;;7.15;6.35;;;11.20;99.90;;;;;;5134211;27;20499;-63
2023/10/24 06:50:41;;;;;;;6.53;5.82;;;11.20;99.90;;;;;;5116129;27;20390;-63
2023/10/24 06:53:07;;;;;;;6.40;5.80;;;11.20;99.90;;;;;;5134174;27;20031;-63
2023/10/24 06:55:33;;;;;;;6.85;6.00;;;11.20;99.90;;;;;;5134385;27;20106;-62
2023/10/24 06:57:59;;;;;;;7.05;6.32;;;11.20;99.90;;;;;;5134213;27;20118;-63
2023/10/24 07:00:25;;;;;;;7.22;5.97;;;11.20;99.90;;;;;;5116004;27;20051;-63
2023/10/24 07:02:54;;;;;;;7.97;6.00;;;11.20;99.90;;;;;;5115809;27;20096;-62
2023/10/24 07:05:20;;;;;;;6.32;5.72;;;11.10;99.90;;;;;;5114498;27;20474;-63
2023/10/24 07:07:46;;;;;;;7.00;6.30;;;11.10;99.90;;;;;;5134180;27;20031;-62
2023/10/24 07:10:12;;;;;;;7.05;6.18;;;11.10;99.90;;;;;;5133784;27;20482;-63
2023/10/24 07:12:37;;;;;;;9.60;6.78;;;11.20;99.90;;;;;;5115791;27;20039;-63
2023/10/24 07:15:03;;;;;;;8.15;6.32;;;11.20;99.90;;;;;;5115616;27;20049;-63
2023/10/24 07:17:31;;;;;;;8.02;6.45;;;11.20;99.90;;;;;;5133899;27;20075;-62
2023/10/24 07:19:59;;;;;;;7.35;6.55;;;11.20;99.90;;;;;;5133910;27;20031;-62
2023/10/24 07:22:25;;;;;;;9.25;6.65;;;11.20;99.90;;;;;;5115612;27;20031;-63
2023/10/24 07:24:51;;;;;;;8.18;6.57;;;11.20;99.90;;;;;;5133592;27;20031;-62
2023/10/24 07:27:16;;;;;;;7.82;6.28;;;11.20;99.90;;;;;;5133433;27;20122;-63
2023/10/24 07:29:42;;;;;;;7.63;6.40;;;11.20;99.90;;;;;;5133535;27;20026;-63
2023/10/24 07:32:08;;;;;;;8.18;6.05;;;11.20;99.90;;;;;;5133243;27;20149;-62
2023/10/24 07:34:34;;;;;;;7.07;6.22;;;11.20;99.90;;;;;;5133510;27;20047;-63
2023/10/24 07:37:00;;;;;;;7.10;6.40;;;11.20;99.90;;;;;;5115160;27;20067;-62
2023/10/24 07:39:26;;;;;;;8.60;6.88;;;11.20;99.90;;;;;;5133360;27;20068;-63
2023/10/24 07:41:52;;;;;;;7.22;6.18;;;11.20;99.90;;;;;;5115147;27;20043;-63
2023/10/24 07:44:18;;;;;;;8.93;6.45;;;11.20;99.90;;;;;;5114895;27;20390;-63
2023/10/24 07:46:43;;;;;;;10.45;7.13;;;11.20;99.90;;;;;;5114819;27;20031;-63
2023/10/24 07:49:10;;;;;;;10.52;6.88;;;11.20;99.90;;;;;;5114584;27;20035;-62
2023/10/24 07:51:35;;;;;;;8.63;6.30;;;11.20;99.90;;;;;;5114880;27;20114;-62
2023/10/24 07:54:01;;;;;;;8.73;7.10;;;11.20;99.90;;;;;;5114718;27;20437;-62
2023/10/24 07:56:27;;;;;;;8.45;7.22;;;11.20;99.90;;;;;;5097616;27;20413;-63
2023/10/24 07:58:53;;;;;;;10.50;7.55;;;11.20;99.90;;;;;;5115190;27;20046;-63
2023/10/24 08:01:18;;;;;;;11.25;7.50;;;11.20;99.90;;;;;;5114205;27;20054;-63
2023/10/24 08:03:44;;;;;;;9.77;7.35;;;11.20;99.90;;;;;;5133179;27;20035;-63
2023/10/24 08:06:10;;;;;;;10.18;7.00;;;11.20;99.90;;;;;;5114365;27;20039;-63
2023/10/24 08:08:36;;;;;;;9.25;7.28;;;11.20;99.90;;;;;;5114368;27;20050;-62
2023/10/24 08:11:02;;;;;;;11.05;7.35;;;11.20;99.90;;;;;;5132813;27;20027;-63
2023/10/24 08:13:29;;;;;;;8.73;7.35;;;11.20;99.90;;;;;;5114283;27;20054;-62
2023/10/24 08:15:58;;;;;;;8.20;7.20;;;11.20;99.90;;;;;;5132156;27;20027;-63
2023/10/24 08:18:26;;;;;;;8.10;7.18;;;11.20;99.90;;;;;;5114015;27;20085;-63
2023/10/24 08:20:53;;;;;;;8.93;7.63;;;11.20;99.90;;;;;;5114347;27;20470;-62
2023/10/24 08:23:19;;;;;;;10.85;7.75;;;11.20;99.90;;;;;;5132294;27;20027;-62
2023/10/24 08:25:45;;;;;;;9.93;7.40;;;11.20;99.90;;;;;;5114091;27;20043;-63
2023/10/24 08:28:11;;;;;;;11.48;7.90;;;11.20;99.90;;;;;;5132388;27;20512;-63
2023/10/24 08:30:36;;;;;;;10.30;8.23;;;11.20;99.90;;;;;;5113788;27;20073;-62
2023/10/24 08:33:02;;;;;;;9.40;7.82;;;11.20;99.90;;;;;;5132539;27;20126;-63
2023/10/24 08:35:28;;;;;;;10.38;7.90;;;11.20;99.90;;;;;;5092676;28;20051;-62
2023/10/24 08:37:54;;;;;;;8.63;7.70;;;11.20;99.90;;;;;;5110482;28;20057;-63
2023/10/24 08:40:20;;;;;;;8.88;7.68;;;11.20;99.90;;;;;;5111713;28;20039;-62
2023/10/24 08:42:46;;;;;;;10.13;7.85;;;11.20;99.90;;;;;;5111632;28;20107;-63
2023/10/24 08:45:16;;;;;;;9.55;7.75;;;11.30;99.90;;;;;;5110287;28;20461;-62
2023/10/24 08:47:43;;;;;;;9.93;7.68;;;11.30;99.90;;;;;;5111435;28;20039;-63
2023/10/24 08:50:09;;;;;;;8.00;7.20;;;11.30;99.90;;;;;;5110154;28;20050;-63
2023/10/24 08:52:35;;;;;;;9.48;7.93;;;11.30;99.90;;;;;;5110058;28;20088;-63
2023/10/24 08:55:05;;;;;;;8.02;6.95;;;11.30;99.90;;;;;;5110520;28;20039;-62
2023/10/24 08:57:39;;;;;;;8.45;7.60;;;11.30;99.90;;;;;;5109948;28;20043;-63
2023/10/24 09:00:08;;;;;;;9.07;7.32;;;11.30;99.90;;;;;;5111415;28;20432;-63
2023/10/24 09:02:35;;;;;;;9.23;7.38;;;11.30;99.90;;;;;;5093374;28;20047;-63
2023/10/24 09:05:01;;;;;;;9.18;7.20;;;11.30;99.90;;;;;;5110074;28;20430;-63
2023/10/24 09:07:28;;;;;;;8.82;7.72;;;11.30;99.90;;;;;;5109724;28;20031;-63
2023/10/24 09:09:53;;;;;;;8.45;7.00;;;11.30;99.90;;;;;;5092768;28;20461;-63
2023/10/24 09:12:21;;;;;;;8.02;6.57;;;11.30;99.90;;;;;;5109617;28;20043;-62
2023/10/24 09:14:48;;;;;;;8.65;7.75;;;11.30;99.90;;;;;;5109618;28;20040;-62
2023/10/24 09:17:17;;;;;;;7.50;6.80;;;11.30;99.90;;;;;;5109754;28;20043;-63
2023/10/24 09:19:43;;;;;;;8.45;7.03;;;11.30;99.90;;;;;;5109760;28;20035;-62
2023/10/24 09:22:14;;;;;;;10.63;6.40;;;11.30;99.90;;;;;;5109698;28;20031;-62
2023/10/24 09:24:45;;;;;;;7.53;6.72;;;11.30;99.90;;;;;;5110611;28;20040;-62
2023/10/24 09:27:12;;;;;;;7.10;6.40;;;11.30;99.90;;;;;;5109469;28;20032;-62
2023/10/24 09:29:38;;;;;;;6.35;5.55;;;11.30;99.90;;;;;;5108826;28;20050;-62
2023/10/24 09:32:04;;;;;;;8.48;6.32;;;11.30;99.90;;;;;;5111304;28;20453;-62
2023/10/24 09:34:46;;;;;;;7.43;6.53;;;11.30;99.90;;;;;;5067567;28;20159;-62
2023/10/24 09:37:13;;;;;;;8.15;7.10;;;11.30;99.90;;;;;;5051061;28;20045;-63
2023/10/24 09:40:01;;;;;;;7.63;6.82;;;11.30;99.90;;;;;;5051035;28;20048;-63
2023/10/24 09:42:31;;;;;;;7.25;6.55;;;11.30;99.90;;;;;;5051321;28;20049;-62
2023/10/24 09:45:02;;;;;;;6.80;6.10;;;11.40;99.90;;;;;;5067657;28;20136;-62
2023/10/24 09:47:29;;;;;;;7.40;6.70;;;11.30;99.90;;;;;;5050998;28;20052;-63
2023/10/24 09:49:55;;;;;;;7.25;6.38;;;11.30;99.90;;;;;;5067832;28;20544;-63
2023/10/24 09:52:24;;;;;;;9.07;5.82;;;11.30;99.90;;;;;;5067929;28;20068;-63
2023/10/24 09:54:50;;;;;;;7.30;6.60;;;11.30;99.90;;;;;;5050977;28;20185;-62
2023/10/24 09:57:18;;;;;;;6.60;5.88;;;11.30;99.90;;;;;;5068098;28;20080;-62
2023/10/24 09:59:47;;;;;;;7.47;6.75;;;11.30;99.90;;;;;;5067653;28;20114;-62
2023/10/24 10:02:14;;;;;;;7.78;6.60;;;11.30;99.90;;;;;;5050977;28;20044;-62
2023/10/24 10:04:41;;;;;;;9.80;6.63;;;11.40;99.90;;;;;;5050687;28;20461;-62
2023/10/24 10:07:10;;;;;;;8.40;6.88;;;11.40;99.90;;;;;;5050964;28;20060;-62
2023/10/24 10:09:41;;;;;;;8.05;7.05;;;11.50;99.90;;;;;;5067831;28;20539;-63
2023/10/24 10:12:10;;;;;;;7.18;6.38;;;11.60;99.90;;;;;;5071468;28;20075;-62
2023/10/24 10:14:45;;;;;;;6.68;5.97;;;11.80;99.90;;;;;;5090178;28;20105;-63
2023/10/24 10:17:21;;;;;;;8.43;7.00;;;11.80;99.90;;;;;;5089168;28;20135;-62
2023/10/24 10:20:14;;;;;;;7.93;6.65;;;11.90;99.90;;;;;;5088550;28;20103;-62
2023/10/24 10:22:48;;;;;;;7.40;6.60;;;12.00;99.90;;;;;;5090040;28;20104;-63
2023/10/24 10:25:59;;;;;;;8.10;7.25;;;12.00;99.90;;;;;;5089236;28;20584;-62
2023/10/24 10:28:37;;;;;;;8.32;6.43;;;12.00;99.90;;;;;;5065626;28;20048;-62
2023/10/24 10:31:40;;;;;;;9.30;7.97;;;12.00;99.90;;;;;;5088620;28;20165;-63
2023/10/24 10:34:06;;;;;;;8.93;7.13;;;12.00;99.90;;;;;;5104023;28;20051;-62
2023/10/24 10:36:31;;;;;;;9.00;7.45;;;12.00;99.90;;;;;;5112435;28;20108;-62
2023/10/24 10:39:05;;;;;;;9.38;7.50;;;12.00;99.90;;;;;;5130824;27;20035;-62
2023/10/24 10:41:32;;;;;;;8.35;7.47;;;12.00;99.90;;;;;;5116134;27;20046;-62
2023/10/24 10:44:02;;;;;;;10.48;7.45;;;12.10;99.90;;;;;;5115870;27;20099;-62
2023/10/24 10:46:32;;;;;;;8.60;7.72;;;12.10;99.90;;;;;;5115617;27;20104;-62
2023/10/24 10:49:03;;;;;;;8.63;7.72;;;12.20;99.90;;;;;;5116018;27;20531;-62
2023/10/24 10:51:33;;;;;;;8.70;7.85;;;12.20;99.90;;;;;;5116112;27;20054;-63
2023/10/24 10:54:27;;;;;;;9.00;7.65;;;12.20;99.90;;;;;;5115744;27;20046;-63
2023/10/24 10:56:57;;;;;;;8.30;7.50;;;12.20;99.90;;;;;;5115804;27;20039;-62
2023/10/24 10:59:40;;;;;;;9.30;8.30;;;12.20;99.90;;;;;;5115810;27;20046;-63
2023/10/24 11:02:46;;;;;;;9.82;7.80;;;12.30;99.90;;;;;;5133982;27;20050;-63
2023/10/24 11:05:51;;;;;;;8.02;7.22;;;12.50;99.90;;;;;;5115044;27;20047;-62
2023/10/24 11:08:22;;;;;;;8.32;7.53;;;12.60;99.90;;;;;;5114811;27;20071;-62
2023/10/24 11:10:54;;;;;;;12.43;7.53;;;12.70;99.90;;;;;;5133897;27;20066;-62
2023/10/24 11:13:42;;;;;;;8.25;7.45;;;12.80;99.90;;;;;;5134276;27;20482;-62
2023/10/24 11:16:13;;;;;;;8.25;7.18;;;13.00;99.90;;;;;;5133940;27;20041;-62
2023/10/24 11:18:40;;;;;;;8.75;7.13;;;13.00;99.90;;;;;;5134050;27;20498;-62
2023/10/24 11:21:09;;;;;;;12.40;7.10;;;13.10;99.90;;;;;;5133622;27;20450;-63
2023/10/24 11:23:35;;;;;;;7.72;6.97;;;13.10;99.90;;;;;;5133826;27;20077;-62
2023/10/24 11:26:02;;;;;;;7.60;6.90;;;13.10;99.90;;;;;;5133246;27;20041;-63
2023/10/24 11:28:28;;;;;;;8.25;7.25;;;13.10;99.90;;;;;;5133777;27;20035;-63
2023/10/24 11:30:56;;;;;;;7.78;7.07;;;13.00;99.90;;;;;;5097904;27;20561;-62
2023/10/24 11:33:22;;;;;;;7.45;6.75;;;13.00;99.90;;;;;;5115058;27;20039;-63
2023/10/24 11:35:48;;;;;;;7.70;6.85;;;13.00;99.90;;;;;;5133395;27;20077;-62
2023/10/24 11:38:16;;;;;;;9.27;7.32;;;12.90;99.90;;;;;;5115074;27;20100;-63
2023/10/24 11:40:46;;;;;;;7.53;6.82;;;12.90;99.90;;;;;;5115152;27;20050;-62
2023/10/24 11:43:13;;;;;;;7.95;6.22;;;13.00;99.90;;;;;;5133378;27;20035;-62
2023/10/24 11:45:39;;;;;;;7.38;6.60;;;13.00;99.90;;;;;;5133421;27;20039;-63
2023/10/24 11:48:05;;;;;;;7.15;6.45;;;13.00;99.90;;;;;;5114553;27;20043;-63
2023/10/24 11:50:43;;;;;;;6.50;5.90;;;13.00;99.90;;;;;;5132840;27;20054;-63
2023/10/24 11:53:11;;;;;;;7.85;5.90;;;13.00;99.90;;;;;;5114461;27;20035;-62
2023/10/24 11:55:36;;;;;;;7.07;5.85;;;13.00;99.90;;;;;;5115038;27;20443;-63
2023/10/24 11:58:06;;;;;;;6.75;6.10;;;13.00;99.90;;;;;;5132944;27;20075;-62
2023/10/24 12:00:31;;;;;;;6.47;5.65;;;13.00;99.90;;;;;;5127386;27;20035;-63
2023/10/24 12:03:07;;;;;;;8.80;6.13;;;12.90;99.90;;;;;;5114435;27;20049;-62
2023/10/24 12:05:33;;;;;;;7.38;5.47;;;12.90;99.90;;;;;;5132928;27;20898;-63
2023/10/24 12:08:00;;;;;;;9.10;5.70;;;12.90;99.90;;;;;;5114468;27;20062;-62
2023/10/24 12:10:28;;;;;;;7.88;5.88;;;12.90;99.90;;;;;;5114219;27;20054;-63
2023/10/24 12:13:00;;;;;;;6.30;5.43;;;12.90;99.90;;;;;;5114423;27;20039;-62
2023/10/24 12:15:26;;;;;;;6.80;5.80;;;12.90;99.90;;;;;;5132388;27;20056;-62
2023/10/24 12:17:52;;;;;;;6.93;5.50;;;12.90;99.90;;;;;;5114497;27;20481;-62
2023/10/24 12:20:22;;;;;;;6.00;5.40;;;12.90;99.90;;;;;;5114042;27;20051;-63
2023/10/24 12:22:49;;;;;;;6.47;5.07;;;12.90;99.90;;;;;;5132843;27;20038;-62
2023/10/24 12:25:18;;;;;;;5.90;4.88;;;12.90;99.90;;;;;;5113999;27;20128;-63
2023/10/24 12:27:47;;;;;;;5.90;5.22;;;12.90;99.90;;;;;;5114056;27;20039;-63
2023/10/24 12:30:14;;;;;;;8.30;5.63;;;12.90;99.90;;;;;;5114278;27;20135;-63
2023/10/24 12:32:41;;;;;;;7.22;5.15;;;12.90;99.90;;;;;;5114033;27;20525;-63
2023/10/24 12:35:08;;;;;;;7.03;5.30;;;13.00;99.90;;;;;;5132230;27;20058;-63
2023/10/24 12:37:34;;;;;;;6.32;5.30;;;13.00;99.90;;;;;;5114125;27;20116;-63
2023/10/24 12:40:01;;;;;;;5.45;4.95;;;13.00;99.90;;;;;;5113866;27;20049;-62